createdAt,value
2022-09-22T00:01:32.371Z,98.60
2022-09-22T00:04:06.081Z,98.70
2022-09-22T00:06:36.968Z,98.80
2022-09-22T00:09:06.463Z,98.90
2022-09-22T00:11:37.478Z,98.90
2022-09-22T00:14:08.956Z,98.80
2022-09-22T00:16:39.115Z,99.10
2022-09-22T00:19:08.866Z,99.00
2022-09-22T00:21:37.397Z,99.00
2022-09-22T00:24:08.204Z,99.00
2022-09-22T00:26:37.934Z,99.00
2022-09-22T00:29:08.057Z,98.90
2022-09-22T00:31:37.682Z,98.90
2022-09-22T00:34:06.606Z,98.80
2022-09-22T00:36:36.286Z,98.90
2022-09-22T00:39:04.370Z,98.90
2022-09-22T00:41:36.090Z,98.80
2022-09-22T00:44:32.662Z,98.80
2022-09-22T00:47:03.596Z,98.80
2022-09-22T00:49:38.979Z,99.10
2022-09-22T00:52:09.358Z,99.00
2022-09-22T00:54:37.623Z,99.00
2022-09-22T00:57:10.193Z,98.90
2022-09-22T00:59:38.911Z,99.10
2022-09-22T01:02:07.804Z,99.00
2022-09-22T01:04:36.632Z,99.00
2022-09-22T01:07:06.122Z,99.20
2022-09-22T01:09:35.760Z,99.00
2022-09-22T01:12:05.259Z,99.10
2022-09-22T01:14:47.515Z,99.10
2022-09-22T01:17:26.498Z,99.10
2022-09-22T01:20:27.200Z,99.10
2022-09-22T01:23:15.229Z,99.10
2022-09-22T01:26:15.174Z,99.20
2022-09-22T01:29:08.779Z,99.10
2022-09-22T01:31:42.759Z,99.10
2022-09-22T01:34:16.944Z,99.00
2022-09-22T01:36:50.714Z,99.00
2022-09-22T01:39:22.753Z,99.10
2022-09-22T01:41:58.249Z,99.20
2022-09-22T01:44:31.955Z,99.10
2022-09-22T01:47:07.366Z,99.10
2022-09-22T01:49:39.561Z,99.10
2022-09-22T01:52:12.958Z,99.10
2022-09-22T01:54:45.386Z,99.30
2022-09-22T01:57:18.458Z,99.10
2022-09-22T01:59:56.117Z,99.00
2022-09-22T02:02:31.593Z,99.00
2022-09-22T02:05:04.012Z,99.10
2022-09-22T02:07:35.212Z,99.20
2022-09-22T02:10:09.350Z,99.10
2022-09-22T02:12:38.008Z,99.00
2022-09-22T02:15:28.075Z,99.20
2022-09-22T02:18:02.236Z,99.10
2022-09-22T02:20:30.582Z,99.20
2022-09-22T02:22:58.874Z,99.30
2022-09-22T02:25:27.368Z,99.10
2022-09-22T02:27:57.139Z,99.10
2022-09-22T02:30:25.282Z,99.10
2022-09-22T02:32:56.050Z,99.00
2022-09-22T02:35:31.334Z,99.20
2022-09-22T02:38:05.074Z,99.00
2022-09-22T02:40:46.926Z,98.90
2022-09-22T02:43:21.747Z,98.80
2022-09-22T02:45:54.389Z,99.20
2022-09-22T02:48:25.590Z,99.00
2022-09-22T02:50:56.189Z,99.00
2022-09-22T02:53:24.614Z,99.00
2022-09-22T02:55:52.608Z,98.90
2022-09-22T02:58:20.605Z,98.70
2022-09-22T03:00:48.825Z,98.90
2022-09-22T03:03:16.822Z,98.70
2022-09-22T03:05:44.850Z,98.70
2022-09-22T03:08:14.347Z,98.60
2022-09-22T03:10:42.391Z,98.70
2022-09-22T03:13:16.531Z,98.90
2022-09-22T03:15:45.657Z,98.80
2022-09-22T03:18:13.761Z,99.00
2022-09-22T03:20:42.092Z,98.80
2022-09-22T03:23:10.285Z,98.70
2022-09-22T03:25:40.038Z,98.70
2022-09-22T03:28:08.190Z,98.80
2022-09-22T03:30:37.343Z,99.00
2022-09-22T03:33:05.628Z,98.90
2022-09-22T03:35:33.715Z,99.10
2022-09-22T03:38:01.838Z,99.10
2022-09-22T03:40:30.114Z,99.20
2022-09-22T03:42:59.879Z,99.40
2022-09-22T03:45:28.056Z,99.40
2022-09-22T03:47:56.243Z,99.10
2022-09-22T03:50:24.198Z,99.20
2022-09-22T03:52:52.490Z,99.20
2022-09-22T03:55:20.551Z,99.00
2022-09-22T03:57:48.899Z,99.10
2022-09-22T04:00:18.767Z,99.20
2022-09-22T04:02:46.763Z,99.00
2022-09-22T04:05:14.814Z,99.20
2022-09-22T04:07:42.774Z,99.40
2022-09-22T04:10:11.167Z,99.10
2022-09-22T04:12:39.287Z,99.30
2022-09-22T04:15:08.328Z,99.40
2022-09-22T04:17:38.814Z,99.10
2022-09-22T04:20:08.219Z,99.20
2022-09-22T04:22:36.214Z,99.40
2022-09-22T04:25:04.550Z,99.60
2022-09-22T04:27:32.960Z,99.20
2022-09-22T04:30:02.008Z,99.30
2022-09-22T04:32:29.994Z,99.40
2022-09-22T04:34:59.397Z,99.30
2022-09-22T04:37:27.750Z,99.00
2022-09-22T04:39:55.790Z,99.40
2022-09-22T04:42:23.804Z,99.40
2022-09-22T04:44:51.796Z,99.10
2022-09-22T04:47:19.808Z,99.30
2022-09-22T04:49:47.772Z,99.70
2022-09-22T04:52:17.105Z,99.50
2022-09-22T04:54:45.144Z,99.60
2022-09-22T04:57:15.140Z,99.60
2022-09-22T04:59:46.439Z,99.50
2022-09-22T05:02:14.591Z,99.40
2022-09-22T05:04:42.715Z,99.30
2022-09-22T05:07:11.061Z,99.20
2022-09-22T05:09:40.583Z,99.60
2022-09-22T05:12:08.723Z,99.60
2022-09-22T05:14:36.802Z,99.60
2022-09-22T05:17:04.830Z,99.50
2022-09-22T05:19:33.208Z,99.80
2022-09-22T05:22:01.647Z,99.70
2022-09-22T05:24:29.917Z,99.80
2022-09-22T05:26:59.855Z,99.90
2022-09-22T05:29:28.238Z,99.80
2022-09-22T05:31:57.795Z,99.80
2022-09-22T05:34:27.106Z,99.60
2022-09-22T05:36:55.570Z,99.90
2022-09-22T05:39:24.316Z,99.60
2022-09-22T05:41:52.943Z,99.60
2022-09-22T05:44:23.543Z,99.60
2022-09-22T05:46:51.709Z,99.30
2022-09-22T05:49:19.696Z,99.60
2022-09-22T05:51:47.735Z,99.60
2022-09-22T05:54:18.979Z,99.60
2022-09-22T05:56:49.354Z,99.20
2022-09-22T05:59:17.321Z,99.40
2022-09-22T06:01:46.742Z,99.20
2022-09-22T06:04:14.867Z,99.20
2022-09-22T06:06:42.911Z,99.00
2022-09-22T06:09:10.866Z,99.30
2022-09-22T06:11:38.901Z,99.20
2022-09-22T06:14:06.972Z,99.30
2022-09-22T06:16:35.116Z,99.10
2022-09-22T06:19:05.277Z,99.00
2022-09-22T06:21:33.575Z,99.20
2022-09-22T06:24:01.615Z,99.10
2022-09-22T06:26:29.585Z,99.30
2022-09-22T06:28:58.415Z,99.40
2022-09-22T06:31:26.535Z,99.30
2022-09-22T06:33:54.978Z,99.50
2022-09-22T06:36:30.319Z,99.20
2022-09-22T06:38:59.268Z,99.00
2022-09-22T06:41:27.423Z,99.40
2022-09-22T06:43:56.169Z,99.40
2022-09-22T06:46:24.571Z,99.10
2022-09-22T06:48:57.446Z,99.00
2022-09-22T06:51:27.867Z,99.00
2022-09-22T06:53:56.114Z,99.10
2022-09-22T06:56:25.482Z,99.00
2022-09-22T06:59:09.431Z,98.80
2022-09-22T07:01:38.644Z,99.30
2022-09-22T07:04:06.910Z,99.10
2022-09-22T07:06:37.344Z,98.90
2022-09-22T07:09:06.155Z,99.00
2022-09-22T07:11:38.889Z,99.00
2022-09-22T07:14:08.474Z,98.90
2022-09-22T07:16:37.546Z,99.20
2022-09-22T07:19:06.039Z,99.00
2022-09-22T07:21:37.754Z,99.00
2022-09-22T07:24:08.115Z,99.50
2022-09-22T07:26:37.936Z,99.60
2022-09-22T07:29:08.494Z,99.90
2022-09-22T07:31:37.063Z,99.90
2022-09-22T07:34:05.425Z,99.40
2022-09-22T07:36:37.957Z,98.70
2022-09-22T07:39:08.149Z,99.00
2022-09-22T07:41:41.718Z,98.50
2022-09-22T07:44:24.756Z,98.90
2022-09-22T07:46:53.128Z,98.70
2022-09-22T07:49:22.192Z,98.90
2022-09-22T07:51:54.751Z,98.80
2022-09-22T07:54:23.005Z,98.90
2022-09-22T07:56:51.979Z,98.30
2022-09-22T07:59:19.986Z,98.10
2022-09-22T08:01:50.717Z,98.30
2022-09-22T08:04:22.594Z,98.10
2022-09-22T08:06:55.677Z,98.10
2022-09-22T08:09:24.347Z,98.10
2022-09-22T08:11:53.478Z,98.50
2022-09-22T08:14:22.197Z,97.40
2022-09-22T08:16:51.665Z,97.30
2022-09-22T08:19:21.135Z,97.70
2022-09-22T08:21:51.956Z,97.50
2022-09-22T08:24:21.694Z,97.30
2022-09-22T08:26:52.118Z,97.30
2022-09-22T08:29:20.305Z,97.70
2022-09-22T08:31:49.189Z,97.50
2022-09-22T08:34:18.194Z,97.50
2022-09-22T08:36:48.317Z,97.90
2022-09-22T08:39:19.233Z,97.70
2022-09-22T08:42:07.260Z,97.20
2022-09-22T08:44:39.524Z,96.80
2022-09-22T08:47:14.294Z,96.50
2022-09-22T08:50:06.928Z,97.00
2022-09-22T08:52:39.849Z,97.00
2022-09-22T08:55:20.311Z,97.00
2022-09-22T08:58:01.756Z,96.00
2022-09-22T09:00:33.923Z,95.70
2022-09-22T09:03:17.843Z,96.30
2022-09-22T09:06:02.119Z,96.20
2022-09-22T09:08:53.921Z,95.90
2022-09-22T09:11:34.478Z,95.50
2022-09-22T09:14:19.211Z,94.90
2022-09-22T09:16:53.666Z,95.60
2022-09-22T09:19:30.686Z,94.30
2022-09-22T09:22:03.544Z,94.00
2022-09-22T09:27:27.047Z,94.70
2022-09-22T09:30:04.750Z,94.40
2022-09-22T09:32:43.237Z,94.60
2022-09-22T09:35:15.014Z,95.00
2022-09-22T09:37:45.344Z,94.30
2022-09-22T09:40:18.258Z,94.70
2022-09-22T09:42:53.871Z,94.70
2022-09-22T09:45:26.745Z,94.80
2022-09-22T09:48:15.553Z,95.00
2022-09-22T09:50:43.627Z,94.60
2022-09-22T09:53:25.302Z,93.80
2022-09-22T09:55:53.599Z,93.40
2022-09-22T09:58:36.909Z,94.20
2022-09-22T10:01:08.788Z,94.40
2022-09-22T10:03:42.715Z,94.90
2022-09-22T10:06:12.019Z,95.00
2022-09-22T10:08:45.292Z,95.70
2022-09-22T10:11:15.047Z,95.40
2022-09-22T10:13:45.193Z,95.70
2022-09-22T10:16:34.286Z,95.40
2022-09-22T10:19:21.012Z,95.70
2022-09-22T10:21:49.462Z,96.10
2022-09-22T10:24:30.301Z,95.90
2022-09-22T10:27:00.407Z,96.20
2022-09-22T10:29:33.234Z,96.20
2022-09-22T10:32:04.255Z,96.10
2022-09-22T10:34:34.664Z,96.80
2022-09-22T10:37:04.746Z,96.90
2022-09-22T10:39:45.075Z,96.50
2022-09-22T10:42:32.501Z,96.30
2022-09-22T10:45:04.725Z,95.90
2022-09-22T10:47:40.715Z,95.60
2022-09-22T10:50:35.630Z,96.00
2022-09-22T10:53:25.567Z,95.80
2022-09-22T10:55:56.904Z,96.30
2022-09-22T10:58:32.564Z,96.20
2022-09-22T11:01:31.767Z,96.20
2022-09-22T11:04:25.348Z,96.70
2022-09-22T11:07:32.767Z,96.10
2022-09-22T11:10:35.480Z,94.90
2022-09-22T11:13:17.655Z,95.50
2022-09-22T11:16:04.842Z,96.40
2022-09-22T11:18:49.204Z,97.00
2022-09-22T11:21:31.256Z,97.70
2022-09-22T11:24:16.254Z,97.80
2022-09-22T11:26:53.278Z,98.20
2022-09-22T11:30:10.780Z,98.30
2022-09-22T11:33:18.283Z,98.40
2022-09-22T11:35:58.753Z,99.00
2022-09-22T11:38:49.876Z,98.80
2022-09-22T11:41:30.731Z,99.10
2022-09-22T11:44:20.297Z,99.60
2022-09-22T11:47:08.104Z,99.90
2022-09-22T11:49:51.279Z,99.80
2022-09-22T11:52:35.029Z,99.60
2022-09-22T11:55:20.471Z,99.60
2022-09-22T11:57:53.005Z,99.20
2022-09-22T12:00:22.459Z,99.20
2022-09-22T12:03:01.965Z,99.30
2022-09-22T12:05:35.667Z,99.10
2022-09-22T12:08:08.513Z,99.00
2022-09-22T12:10:40.765Z,98.70
2022-09-22T12:13:13.496Z,99.00
2022-09-22T12:15:49.071Z,98.50
2022-09-22T12:18:25.038Z,98.30
2022-09-22T12:21:00.951Z,98.70
2022-09-22T12:23:41.578Z,99.10
2022-09-22T12:26:11.776Z,97.80
2022-09-22T12:28:43.119Z,97.70
2022-09-22T12:31:14.122Z,96.40
2022-09-22T12:33:49.829Z,96.00
2022-09-22T12:36:20.028Z,96.90
2022-09-22T12:38:49.925Z,95.10
2022-09-22T12:41:26.545Z,95.70
2022-09-22T12:43:54.605Z,96.00
2022-09-22T12:46:27.876Z,95.10
2022-09-22T12:48:56.258Z,94.10
2022-09-22T12:51:33.282Z,93.90
2022-09-22T12:54:47.234Z,94.10
2022-09-22T12:57:46.633Z,94.30
2022-09-22T13:00:30.620Z,94.30
2022-09-22T13:03:01.813Z,94.40
2022-09-22T13:05:39.249Z,94.40
2022-09-22T13:08:24.008Z,94.60
2022-09-22T13:11:00.958Z,94.90
2022-09-22T13:13:44.842Z,95.10
2022-09-22T13:16:33.491Z,95.00
2022-09-22T13:19:02.294Z,95.80
2022-09-22T13:21:33.399Z,96.10
2022-09-22T13:24:03.695Z,96.10
2022-09-22T13:26:34.481Z,95.80
2022-09-22T13:29:12.739Z,95.60
2022-09-22T13:31:43.814Z,96.20
2022-09-22T13:34:25.733Z,95.90
2022-09-22T13:36:57.147Z,96.10
2022-09-22T13:39:28.331Z,95.80
2022-09-22T13:41:59.474Z,96.00
2022-09-22T13:44:33.289Z,96.00
2022-09-22T13:47:04.346Z,97.10
2022-09-22T13:49:36.926Z,97.00
2022-09-22T13:52:08.498Z,96.70
2022-09-22T13:54:38.490Z,96.80
2022-09-22T13:57:15.762Z,96.90
2022-09-22T13:59:45.438Z,97.00
2022-09-22T14:02:14.724Z,97.00
2022-09-22T14:04:51.365Z,97.00
2022-09-22T14:07:22.289Z,97.00
2022-09-22T14:09:51.609Z,97.10
2022-09-22T14:12:20.790Z,97.40
2022-09-22T14:14:50.502Z,97.90
2022-09-22T14:17:22.702Z,97.80
2022-09-22T14:19:56.339Z,97.70
2022-09-22T14:22:26.429Z,97.80
2022-09-22T14:24:57.350Z,97.90
2022-09-22T14:27:28.454Z,98.20
2022-09-22T14:29:58.567Z,98.10
2022-09-22T14:32:38.271Z,97.70
2022-09-22T14:35:09.336Z,98.10
2022-09-22T14:37:41.601Z,98.10
2022-09-22T14:40:17.559Z,98.00
2022-09-22T14:42:57.386Z,98.10
2022-09-22T14:45:28.833Z,97.90
2022-09-22T14:48:19.223Z,97.60
2022-09-22T14:50:50.355Z,97.80
2022-09-22T14:53:23.275Z,97.70
2022-09-22T14:55:54.550Z,97.20
2022-09-22T14:58:25.572Z,97.70
2022-09-22T15:01:18.161Z,97.60
2022-09-22T15:03:54.711Z,97.00
2022-09-22T15:06:22.984Z,96.90
2022-09-22T15:08:53.069Z,97.20
2022-09-22T15:11:21.086Z,97.00
2022-09-22T15:13:52.800Z,97.20
2022-09-22T15:16:43.348Z,96.90
2022-09-22T15:19:11.964Z,97.10
2022-09-22T15:21:46.963Z,96.30
2022-09-22T15:24:16.347Z,96.60
2022-09-22T15:26:44.846Z,95.50
2022-09-22T15:29:13.263Z,95.40
2022-09-22T15:31:42.889Z,94.70
2022-09-22T15:34:12.755Z,94.50
2022-09-22T15:36:46.527Z,94.80
2022-09-22T15:39:20.310Z,94.70
2022-09-22T15:41:48.703Z,95.00
2022-09-22T15:44:17.351Z,95.10
2022-09-22T15:46:51.491Z,95.30
2022-09-22T15:49:24.823Z,95.50
2022-09-22T15:51:53.948Z,95.50
2022-09-22T15:54:23.923Z,95.30
2022-09-22T15:56:55.266Z,95.30
2022-09-22T15:59:28.181Z,94.30
2022-09-22T16:01:59.440Z,94.40
2022-09-22T16:04:30.004Z,94.20
2022-09-22T16:07:01.145Z,93.90
2022-09-22T16:09:29.476Z,93.80
2022-09-22T16:11:57.644Z,94.50
2022-09-22T16:14:25.743Z,93.50
2022-09-22T16:16:53.819Z,94.50
2022-09-22T16:19:23.251Z,94.70
2022-09-22T16:21:52.984Z,94.60
2022-09-22T16:24:22.419Z,95.00
2022-09-22T16:26:51.347Z,94.70
2022-09-22T16:29:19.329Z,95.20
2022-09-22T16:31:47.930Z,95.40
2022-09-22T16:34:16.060Z,95.10
2022-09-22T16:36:46.162Z,94.50
2022-09-22T16:39:14.274Z,94.70
2022-09-22T16:41:46.642Z,94.50
2022-09-22T16:44:15.647Z,94.60
2022-09-22T16:46:43.770Z,94.70
2022-09-22T16:49:15.607Z,95.00
2022-09-22T16:51:46.755Z,95.00
2022-09-22T16:54:15.482Z,95.70
2022-09-22T16:56:45.289Z,95.40
2022-09-22T16:59:15.635Z,95.10
2022-09-22T17:01:44.599Z,94.60
2022-09-22T17:04:14.156Z,94.10
2022-09-22T17:06:42.158Z,94.40
2022-09-22T17:09:13.089Z,94.00
2022-09-22T17:11:43.253Z,94.10
2022-09-22T17:14:14.559Z,94.20
2022-09-22T17:16:44.519Z,94.20
2022-09-22T17:19:17.202Z,94.60
2022-09-22T17:21:46.498Z,94.50
2022-09-22T17:24:18.271Z,94.90
2022-09-22T17:26:47.969Z,95.10
2022-09-22T17:29:17.019Z,94.90
2022-09-22T17:31:47.278Z,95.30
2022-09-22T17:34:16.302Z,95.50
2022-09-22T17:36:45.049Z,95.50
2022-09-22T17:39:13.147Z,95.30
2022-09-22T17:41:46.908Z,95.70
2022-09-22T17:44:20.844Z,95.70
2022-09-22T17:47:07.568Z,95.80
2022-09-22T17:49:53.315Z,96.00
2022-09-22T17:52:39.571Z,95.60
2022-09-22T17:55:12.571Z,95.70
2022-09-22T17:57:43.754Z,95.70
2022-09-22T18:00:15.519Z,95.80
2022-09-22T18:02:44.804Z,96.20
2022-09-22T18:05:14.895Z,96.10
2022-09-22T18:07:43.693Z,96.10
2022-09-22T18:10:14.268Z,96.10
2022-09-22T18:12:44.603Z,96.10
2022-09-22T18:15:15.083Z,96.20
2022-09-22T18:17:44.348Z,96.10
2022-09-22T18:20:18.025Z,95.90
2022-09-22T18:22:47.995Z,96.10
2022-09-22T18:25:19.385Z,96.00
2022-09-22T18:27:49.415Z,96.20
2022-09-22T18:30:19.685Z,96.50
2022-09-22T18:32:48.215Z,96.20
2022-09-22T18:35:16.738Z,96.20
2022-09-22T18:37:44.993Z,96.50
2022-09-22T18:40:13.565Z,96.40
2022-09-22T18:42:44.711Z,96.50
2022-09-22T18:45:14.522Z,96.40
2022-09-22T18:47:43.516Z,96.30
2022-09-22T18:50:13.298Z,96.60
2022-09-22T18:52:44.008Z,96.70
2022-09-22T18:55:14.068Z,96.80
2022-09-22T18:57:42.257Z,96.70
2022-09-22T19:00:15.275Z,96.70
2022-09-22T19:02:43.512Z,96.70
2022-09-22T19:05:11.620Z,96.80
2022-09-22T19:07:44.096Z,96.60
2022-09-22T19:10:14.677Z,96.70
2022-09-22T19:12:43.183Z,96.50
2022-09-22T19:15:16.661Z,96.60
2022-09-22T19:17:46.382Z,96.60
2022-09-22T19:20:17.201Z,96.80
2022-09-22T19:22:45.786Z,96.50
2022-09-22T19:25:13.980Z,96.60
2022-09-22T19:27:42.101Z,97.20
2022-09-22T19:30:11.297Z,97.40
2022-09-22T19:32:41.724Z,97.50
2022-09-22T19:35:10.438Z,97.50
2022-09-22T19:37:38.641Z,97.50
2022-09-22T19:40:07.874Z,97.60
2022-09-22T19:42:40.366Z,97.80
2022-09-22T19:45:09.367Z,97.70
2022-09-22T19:47:37.746Z,97.50
2022-09-22T19:50:08.590Z,97.20
2022-09-22T19:52:37.679Z,97.60
2022-09-22T19:55:06.525Z,97.40
2022-09-22T19:57:41.028Z,97.60
2022-09-22T20:00:10.732Z,97.50
2022-09-22T20:02:38.990Z,97.40
2022-09-22T20:05:19.164Z,97.50
2022-09-22T20:07:47.230Z,97.60
2022-09-22T20:10:19.087Z,97.50
2022-09-22T20:12:47.192Z,97.70
2022-09-22T20:15:15.761Z,97.20
2022-09-22T20:17:45.904Z,97.20
2022-09-22T20:20:16.792Z,97.20
2022-09-22T20:22:46.585Z,97.20
2022-09-22T20:25:23.447Z,97.00
2022-09-22T20:27:51.699Z,97.00
2022-09-22T20:30:20.007Z,97.20
2022-09-22T20:32:48.218Z,97.10
2022-09-22T20:35:21.667Z,97.20
2022-09-22T20:37:49.796Z,97.40
2022-09-22T20:40:21.327Z,97.30
2022-09-22T20:42:50.276Z,97.40
2022-09-22T20:45:20.846Z,97.50
2022-09-22T20:47:48.903Z,97.50
2022-09-22T20:50:18.528Z,97.50
2022-09-22T20:52:47.155Z,97.40
2022-09-22T20:55:16.482Z,97.40
2022-09-22T20:57:44.583Z,97.70
2022-09-22T21:00:15.237Z,97.30
2022-09-22T21:02:43.564Z,97.40
2022-09-22T21:05:11.719Z,97.10
2022-09-22T21:07:41.163Z,97.10
2022-09-22T21:10:27.215Z,97.20
2022-09-22T21:12:56.543Z,97.20
2022-09-22T21:15:24.730Z,97.50
2022-09-22T21:17:53.235Z,97.20
2022-09-22T21:20:21.592Z,97.10
2022-09-22T21:22:52.268Z,97.20
2022-09-22T21:25:20.345Z,97.00
2022-09-22T21:27:48.340Z,97.10
2022-09-22T21:30:16.521Z,97.10
2022-09-22T21:32:44.584Z,97.10
2022-09-22T21:35:16.484Z,97.30
2022-09-22T21:37:44.635Z,97.40
2022-09-22T21:40:14.267Z,97.50
2022-09-22T21:42:42.356Z,97.60
2022-09-22T21:45:11.079Z,97.50
2022-09-22T21:47:39.200Z,97.50
2022-09-22T21:50:08.427Z,97.50
2022-09-22T21:52:38.318Z,97.50
2022-09-22T21:55:07.508Z,97.20
2022-09-22T21:57:36.914Z,97.00
2022-09-22T22:00:07.460Z,97.20
2022-09-22T22:02:55.737Z,97.00
2022-09-22T22:05:23.871Z,97.00
2022-09-22T22:07:51.889Z,96.70
2022-09-22T22:10:19.976Z,96.80
2022-09-22T22:12:49.368Z,96.90
2022-09-22T22:15:17.648Z,96.80
2022-09-22T22:17:45.648Z,96.70
2022-09-22T22:20:13.747Z,97.10
2022-09-22T22:22:41.910Z,96.90
2022-09-22T22:25:18.468Z,96.80
2022-09-22T22:27:46.593Z,97.00
2022-09-22T22:30:16.058Z,96.50
2022-09-22T22:32:44.201Z,96.60
2022-09-22T22:35:12.680Z,96.90
2022-09-22T22:37:40.654Z,97.20
2022-09-22T22:40:09.301Z,97.20
2022-09-22T22:42:37.381Z,97.20
2022-09-22T22:45:06.636Z,97.20
2022-09-22T22:47:36.190Z,97.00
2022-09-22T22:50:04.401Z,96.90
2022-09-22T22:52:32.428Z,97.00
2022-09-22T22:55:00.709Z,97.00
2022-09-22T22:57:29.749Z,96.90
2022-09-22T22:59:58.179Z,96.70
2022-09-22T23:02:26.236Z,96.80
2022-09-22T23:04:58.578Z,96.90
2022-09-22T23:07:26.644Z,96.90
2022-09-22T23:10:06.551Z,97.00
2022-09-22T23:12:35.184Z,97.10
2022-09-22T23:15:03.675Z,97.00
2022-09-22T23:17:32.031Z,97.30
2022-09-22T23:20:01.450Z,97.30
2022-09-22T23:22:30.540Z,97.70
2022-09-22T23:24:58.992Z,98.10
2022-09-22T23:27:27.064Z,98.10
2022-09-22T23:29:57.178Z,98.30
2022-09-22T23:32:25.561Z,98.40
2022-09-22T23:34:53.751Z,98.30
2022-09-22T23:37:24.952Z,98.60
2022-09-22T23:39:53.782Z,98.50
2022-09-22T23:42:22.320Z,98.30
2022-09-22T23:44:50.677Z,98.30
2022-09-22T23:47:18.651Z,98.30
2022-09-22T23:49:46.856Z,98.40
2022-09-22T23:52:14.863Z,98.40
2022-09-22T23:54:44.645Z,98.20
2022-09-22T23:57:12.710Z,98.20
2022-09-22T23:59:40.747Z,98.30
